createdAt,value
2022-10-02T00:00:38.388Z,31.15
2022-10-02T00:01:38.973Z,31.15
2022-10-02T00:02:39.531Z,31.35
2022-10-02T00:03:40.082Z,31.56
2022-10-02T00:04:40.692Z,31.56
2022-10-02T00:05:41.339Z,31.76
2022-10-02T00:06:41.896Z,31.66
2022-10-02T00:07:42.434Z,31.56
2022-10-02T00:08:42.978Z,31.56
2022-10-02T00:09:43.525Z,31.66
2022-10-02T00:10:44.155Z,31.57
2022-10-02T00:11:44.718Z,31.67
2022-10-02T00:12:45.272Z,31.87
2022-10-02T00:13:45.815Z,32.17
2022-10-02T00:14:46.368Z,31.97
2022-10-02T00:15:46.993Z,32.17
2022-10-02T00:16:47.626Z,32.26
2022-10-02T00:17:48.227Z,32.38
2022-10-02T00:18:48.775Z,32.48
2022-10-02T00:19:49.332Z,32.48
2022-10-02T00:20:50.005Z,32.57
2022-10-02T00:21:50.555Z,32.67
2022-10-02T00:22:51.103Z,32.87
2022-10-02T00:23:51.654Z,32.97
2022-10-02T00:24:52.200Z,33.08
2022-10-02T00:25:52.789Z,33.08
2022-10-02T00:26:53.344Z,33.08
2022-10-02T00:27:53.988Z,33.08
2022-10-02T00:28:54.584Z,33.08
2022-10-02T00:29:55.126Z,33.18
2022-10-02T00:30:55.806Z,32.98
2022-10-02T00:31:56.435Z,32.89
2022-10-02T00:32:57.061Z,32.89
2022-10-02T00:33:57.609Z,32.89
2022-10-02T00:34:58.163Z,32.98
2022-10-02T00:35:58.852Z,32.98
2022-10-02T00:36:59.399Z,33.00
2022-10-02T00:37:59.945Z,33.08
2022-10-02T00:39:00.498Z,33.10
2022-10-02T00:40:01.044Z,33.00
2022-10-02T00:41:01.675Z,33.20
2022-10-02T00:42:02.233Z,33.20
2022-10-02T00:43:02.778Z,33.29
2022-10-02T00:44:03.322Z,33.20
2022-10-02T00:45:03.866Z,33.29
2022-10-02T00:46:04.638Z,33.39
2022-10-02T00:47:05.239Z,33.49
2022-10-02T00:48:05.787Z,33.39
2022-10-02T00:49:06.342Z,33.39
2022-10-02T00:50:06.895Z,33.59
2022-10-02T00:51:07.574Z,33.69
2022-10-02T00:52:08.142Z,33.79
2022-10-02T00:53:08.701Z,33.79
2022-10-02T00:54:09.247Z,33.79
2022-10-02T00:55:09.812Z,33.79
2022-10-02T00:56:10.387Z,33.89
2022-10-02T00:57:10.930Z,33.89
2022-10-02T00:58:11.476Z,33.89
2022-10-02T00:59:12.034Z,33.89
2022-10-02T01:00:12.590Z,33.79
2022-10-02T01:01:13.273Z,33.79
2022-10-02T01:02:13.992Z,33.69
2022-10-02T01:03:14.673Z,33.59
2022-10-02T01:04:15.219Z,33.58
2022-10-02T01:05:15.765Z,33.38
2022-10-02T01:06:16.365Z,33.28
2022-10-02T01:07:16.916Z,33.48
2022-10-02T01:08:17.474Z,33.48
2022-10-02T01:09:18.042Z,33.58
2022-10-02T01:10:18.589Z,33.67
2022-10-02T01:11:19.300Z,33.77
2022-10-02T01:12:19.868Z,33.87
2022-10-02T01:13:20.424Z,33.97
2022-10-02T01:14:20.975Z,33.97
2022-10-02T01:15:21.516Z,34.17
2022-10-02T01:16:22.146Z,34.27
2022-10-02T01:17:22.734Z,34.46
2022-10-02T01:18:23.281Z,34.67
2022-10-02T01:19:23.843Z,34.87
2022-10-02T01:20:24.394Z,34.87
2022-10-02T01:21:25.012Z,35.07
2022-10-02T01:22:25.581Z,35.17
2022-10-02T01:23:26.143Z,35.46
2022-10-02T01:24:26.694Z,35.56
2022-10-02T01:25:27.250Z,35.76
2022-10-02T01:26:27.832Z,35.86
2022-10-02T01:27:28.375Z,35.86
2022-10-02T01:28:29.055Z,36.05
2022-10-02T01:29:29.650Z,36.15
2022-10-02T01:30:30.202Z,36.35
2022-10-02T01:31:30.886Z,36.45
2022-10-02T01:32:31.482Z,36.65
2022-10-02T01:33:32.024Z,37.04
2022-10-02T01:34:32.586Z,38.12
2022-10-02T01:35:33.157Z,39.92
2022-10-02T01:36:34.145Z,42.58
2022-10-02T01:37:34.463Z,44.55
2022-10-02T01:38:35.013Z,45.53
2022-10-02T01:39:35.558Z,46.04
2022-10-02T01:40:36.103Z,46.84
2022-10-02T01:41:36.728Z,47.13
2022-10-02T01:42:37.291Z,47.85
2022-10-02T01:43:37.835Z,48.24
2022-10-02T01:44:38.383Z,49.03
2022-10-02T01:45:38.969Z,49.52
2022-10-02T01:46:39.853Z,49.15
2022-10-02T01:47:40.449Z,48.96
2022-10-02T01:48:41.007Z,48.16
2022-10-02T01:49:41.565Z,47.87
2022-10-02T01:50:42.110Z,47.57
2022-10-02T01:51:42.773Z,47.50
2022-10-02T01:52:43.415Z,47.60
2022-10-02T01:53:43.957Z,47.99
2022-10-02T01:54:44.509Z,48.19
2022-10-02T01:55:45.057Z,49.48
2022-10-02T01:56:45.642Z,50.07
2022-10-02T01:57:46.183Z,53.33
2022-10-02T01:58:46.749Z,54.31
2022-10-02T01:59:47.304Z,55.13
2022-10-02T02:00:47.894Z,55.92
2022-10-02T02:01:48.588Z,56.21
2022-10-02T02:02:49.189Z,56.71
2022-10-02T02:03:49.746Z,57.20
2022-10-02T02:04:50.297Z,57.70
2022-10-02T02:05:50.852Z,58.09
2022-10-02T02:06:51.471Z,58.02
2022-10-02T02:07:52.017Z,58.22
2022-10-02T02:08:52.588Z,59.41
2022-10-02T02:09:53.138Z,60.30
2022-10-02T02:10:53.681Z,61.29
2022-10-02T02:11:54.320Z,62.37
2022-10-02T02:12:54.871Z,62.96
2022-10-02T02:13:55.418Z,63.09
2022-10-02T02:14:55.961Z,63.79
2022-10-02T02:15:56.509Z,64.38
2022-10-02T02:16:57.197Z,64.48
2022-10-02T02:17:57.808Z,64.48
2022-10-02T02:18:58.365Z,64.97
2022-10-02T02:19:58.915Z,65.27
2022-10-02T02:20:59.458Z,65.20
2022-10-02T02:22:00.124Z,65.20
2022-10-02T02:23:00.673Z,65.20
2022-10-02T02:24:01.219Z,65.30
2022-10-02T02:25:01.769Z,65.30
2022-10-02T02:26:02.321Z,65.50
2022-10-02T02:27:02.957Z,65.40
2022-10-02T02:28:03.536Z,65.59
2022-10-02T02:29:04.123Z,65.70
2022-10-02T02:30:04.669Z,65.99
2022-10-02T02:31:05.235Z,65.89
2022-10-02T02:32:05.884Z,65.80
2022-10-02T02:33:06.438Z,65.70
2022-10-02T02:34:06.988Z,65.10
2022-10-02T02:35:07.532Z,64.51
2022-10-02T02:36:08.077Z,64.31
2022-10-02T02:37:08.684Z,64.31
2022-10-02T02:38:09.256Z,64.01
2022-10-02T02:39:09.807Z,64.01
2022-10-02T02:40:10.352Z,64.01
2022-10-02T02:41:10.898Z,64.01
2022-10-02T02:42:13.607Z,64.01
2022-10-02T02:43:12.380Z,64.01
2022-10-02T02:44:12.924Z,63.82
2022-10-02T02:45:13.469Z,63.71
2022-10-02T02:46:14.164Z,63.82
2022-10-02T02:47:14.869Z,63.82
2022-10-02T02:48:15.413Z,64.01
2022-10-02T02:49:15.959Z,64.11
2022-10-02T02:50:16.506Z,64.51
2022-10-02T02:51:17.047Z,64.70
2022-10-02T02:52:17.721Z,65.20
2022-10-02T02:53:18.273Z,65.80
2022-10-02T02:54:18.826Z,66.19
2022-10-02T02:55:19.374Z,66.88
2022-10-02T02:56:19.917Z,67.38
2022-10-02T02:57:20.506Z,67.87
2022-10-02T02:58:21.055Z,68.07
2022-10-02T02:59:21.606Z,68.07
2022-10-02T03:00:22.153Z,68.30
2022-10-02T03:01:22.804Z,68.01
2022-10-02T03:02:23.485Z,67.80
2022-10-02T03:03:24.122Z,67.51
2022-10-02T03:04:24.672Z,67.08
2022-10-02T03:05:25.216Z,65.40
2022-10-02T03:06:25.764Z,64.70
2022-10-02T03:07:26.440Z,64.11
2022-10-02T03:08:26.989Z,64.31
2022-10-02T03:09:27.535Z,64.28
2022-10-02T03:10:28.085Z,64.08
2022-10-02T03:11:28.634Z,63.49
2022-10-02T03:12:29.298Z,63.39
2022-10-02T03:13:29.842Z,63.09
2022-10-02T03:14:30.402Z,62.10
2022-10-02T03:15:31.003Z,62.40
2022-10-02T03:16:31.564Z,62.60
2022-10-02T03:17:32.175Z,62.70
2022-10-02T03:18:32.716Z,63.09
2022-10-02T03:19:33.269Z,64.58
2022-10-02T03:20:33.842Z,65.07
2022-10-02T03:21:34.394Z,65.77
2022-10-02T03:23:10.139Z,66.85
2022-10-02T03:23:35.449Z,67.25
2022-10-02T03:24:35.993Z,67.84
2022-10-02T03:25:36.536Z,68.73
2022-10-02T03:26:37.381Z,69.16
2022-10-02T03:27:37.686Z,69.85
2022-10-02T03:28:54.970Z,70.74
2022-10-02T03:29:39.141Z,71.83
2022-10-02T03:30:39.687Z,72.42
2022-10-02T03:31:40.330Z,73.51
2022-10-02T03:32:40.923Z,74.40
2022-10-02T03:33:41.474Z,75.52
2022-10-02T03:34:42.020Z,76.42
2022-10-02T03:35:42.580Z,77.31
2022-10-02T03:36:43.135Z,77.61
2022-10-02T03:37:43.706Z,78.14
2022-10-02T03:38:44.300Z,78.44
2022-10-02T03:39:44.860Z,78.63
2022-10-02T03:40:45.409Z,78.63
2022-10-02T03:41:45.953Z,78.53
2022-10-02T03:42:46.571Z,78.74
2022-10-02T03:43:47.113Z,78.83
2022-10-02T03:44:47.659Z,79.07
2022-10-02T03:45:51.410Z,79.27
2022-10-02T03:46:49.252Z,79.36
2022-10-02T03:47:49.967Z,79.46
2022-10-02T03:48:50.511Z,79.76
2022-10-02T03:49:51.071Z,79.76
2022-10-02T03:50:51.624Z,79.76
2022-10-02T03:51:52.171Z,79.86
2022-10-02T03:52:52.825Z,79.96
2022-10-02T03:53:53.395Z,79.86
2022-10-02T03:54:53.938Z,79.96
2022-10-02T03:55:54.500Z,79.86
2022-10-02T03:56:55.006Z,79.86
2022-10-02T03:57:55.588Z,79.27
2022-10-02T03:58:56.142Z,79.27
2022-10-02T03:59:56.686Z,79.17
2022-10-02T04:00:57.187Z,78.87
2022-10-02T04:01:57.836Z,78.97
2022-10-02T04:02:58.385Z,79.07
2022-10-02T04:03:58.956Z,78.67
2022-10-02T04:04:59.515Z,78.08
2022-10-02T04:06:00.509Z,77.88
2022-10-02T04:07:01.007Z,77.48
2022-10-02T04:08:01.528Z,77.39
2022-10-02T04:09:02.090Z,77.48
2022-10-02T04:10:02.586Z,77.48
2022-10-02T04:11:03.082Z,77.28
2022-10-02T04:12:03.583Z,77.19
2022-10-02T04:13:04.624Z,76.89
2022-10-02T04:14:04.617Z,76.69
2022-10-02T04:15:05.608Z,76.49
2022-10-02T04:16:06.658Z,76.39
2022-10-02T04:17:07.166Z,75.90
2022-10-02T04:18:07.717Z,75.50
2022-10-02T04:19:08.209Z,75.31
2022-10-02T04:20:08.697Z,75.40
2022-10-02T04:21:09.193Z,75.40
2022-10-02T04:22:09.690Z,75.31
2022-10-02T04:23:10.785Z,74.80
2022-10-02T04:24:11.308Z,74.80
2022-10-02T04:25:11.807Z,74.51
2022-10-02T04:26:12.798Z,74.11
2022-10-02T04:27:13.288Z,73.91
2022-10-02T04:28:13.877Z,73.82
2022-10-02T04:29:14.417Z,73.72
2022-10-02T04:30:15.410Z,73.42
2022-10-02T04:31:16.474Z,73.42
2022-10-02T04:32:17.012Z,73.22
2022-10-02T04:33:17.537Z,73.22
2022-10-02T04:34:18.028Z,73.22
2022-10-02T04:35:18.519Z,72.99
2022-10-02T04:36:19.026Z,72.69
2022-10-02T04:37:19.526Z,72.60
2022-10-02T04:38:20.045Z,72.60
2022-10-02T04:39:20.557Z,72.69
2022-10-02T04:40:21.048Z,72.69
2022-10-02T04:41:21.539Z,72.49
2022-10-02T04:42:22.051Z,72.20
2022-10-02T04:43:22.622Z,72.00
2022-10-02T04:44:23.119Z,72.09
2022-10-02T04:45:24.150Z,72.09
2022-10-02T04:46:24.646Z,72.09
2022-10-02T04:47:25.637Z,72.00
2022-10-02T04:48:26.228Z,71.80
2022-10-02T04:49:26.720Z,71.70
2022-10-02T04:50:27.210Z,71.50
2022-10-02T04:51:27.706Z,71.60
2022-10-02T04:52:28.205Z,71.70
2022-10-02T04:53:28.792Z,71.41
2022-10-02T04:54:29.304Z,71.11
2022-10-02T04:55:29.794Z,70.81
2022-10-02T04:56:30.290Z,71.01
2022-10-02T04:57:30.781Z,70.81
2022-10-02T04:58:31.323Z,70.81
2022-10-02T04:59:31.810Z,71.01
2022-10-02T05:00:32.867Z,70.61
2022-10-02T05:01:33.418Z,68.73
2022-10-02T05:02:33.911Z,68.13
2022-10-02T05:03:34.431Z,68.63
2022-10-02T05:04:34.932Z,69.42
2022-10-02T05:05:35.923Z,69.72
2022-10-02T05:06:36.788Z,70.12
2022-10-02T05:07:37.009Z,70.21
2022-10-02T05:08:37.540Z,70.31
2022-10-02T05:09:38.060Z,70.42
2022-10-02T05:10:38.553Z,70.81
2022-10-02T05:11:39.547Z,71.50
2022-10-02T05:12:40.537Z,72.60
2022-10-02T05:13:41.586Z,72.39
2022-10-02T05:14:41.582Z,72.30
2022-10-02T05:15:42.074Z,72.20
2022-10-02T05:16:42.686Z,71.83
2022-10-02T05:17:43.235Z,71.83
2022-10-02T05:18:43.786Z,70.65
2022-10-02T05:19:44.274Z,70.94
2022-10-02T05:20:45.270Z,71.24
2022-10-02T05:21:45.763Z,71.44
2022-10-02T05:22:46.263Z,71.44
2022-10-02T05:23:46.869Z,71.34
2022-10-02T05:24:47.387Z,71.28
2022-10-02T05:25:47.886Z,71.37
2022-10-02T05:26:48.372Z,71.57
2022-10-02T05:27:48.918Z,71.97
2022-10-02T05:28:49.528Z,72.17
2022-10-02T05:29:50.022Z,72.36
2022-10-02T05:30:50.524Z,72.17
2022-10-02T05:31:51.071Z,72.27
2022-10-02T05:32:51.610Z,72.36
2022-10-02T05:33:52.136Z,72.36
2022-10-02T05:34:52.634Z,72.47
2022-10-02T05:35:53.133Z,72.56
2022-10-02T05:36:53.635Z,72.56
2022-10-02T05:37:54.145Z,72.66
2022-10-02T05:38:54.728Z,72.47
2022-10-02T05:39:55.243Z,72.47
2022-10-02T05:40:55.734Z,72.47
2022-10-02T05:41:56.226Z,71.57
2022-10-02T05:42:56.729Z,71.47
2022-10-02T05:43:57.290Z,71.28
2022-10-02T05:44:57.776Z,70.88
2022-10-02T05:45:58.266Z,70.15
2022-10-02T05:46:59.296Z,70.15
2022-10-02T05:47:59.838Z,70.05
2022-10-02T05:49:00.438Z,69.85
2022-10-02T05:50:00.936Z,69.76
2022-10-02T05:51:01.435Z,69.62
2022-10-02T05:52:01.934Z,69.53
2022-10-02T05:53:02.431Z,69.32
2022-10-02T05:54:03.533Z,69.13
2022-10-02T05:55:04.077Z,69.13
2022-10-02T05:56:04.571Z,69.09
2022-10-02T05:57:05.062Z,69.09
2022-10-02T05:58:05.556Z,68.80
2022-10-02T05:59:06.083Z,68.01
2022-10-02T06:00:06.587Z,67.51
2022-10-02T06:01:07.171Z,67.41
2022-10-02T06:02:07.809Z,67.51
2022-10-02T06:03:08.353Z,67.80
2022-10-02T06:04:08.877Z,67.71
2022-10-02T06:05:09.366Z,67.51
2022-10-02T06:06:09.861Z,67.38
2022-10-02T06:07:10.358Z,67.28
2022-10-02T06:08:10.870Z,67.47
2022-10-02T06:09:11.388Z,67.35
2022-10-02T06:10:11.911Z,67.25
2022-10-02T06:11:12.404Z,67.14
2022-10-02T06:12:12.896Z,67.25
2022-10-02T06:13:13.388Z,66.52
2022-10-02T06:14:14.510Z,66.13
2022-10-02T06:15:14.998Z,66.22
2022-10-02T06:16:15.532Z,66.13
2022-10-02T06:17:16.042Z,65.90
2022-10-02T06:18:16.542Z,64.81
2022-10-02T06:19:17.086Z,65.14
2022-10-02T06:20:17.583Z,64.64
2022-10-02T06:21:18.072Z,64.71
2022-10-02T06:22:19.070Z,64.42
2022-10-02T06:23:19.559Z,63.72
2022-10-02T06:24:20.145Z,63.82
2022-10-02T06:25:20.661Z,63.49
2022-10-02T06:26:21.149Z,63.30
2022-10-02T06:27:21.783Z,63.10
2022-10-02T06:28:22.351Z,62.90
2022-10-02T06:29:27.015Z,62.90
2022-10-02T06:30:23.865Z,62.90
2022-10-02T06:31:24.463Z,62.71
2022-10-02T06:32:25.040Z,62.60
2022-10-02T06:33:25.529Z,62.57
2022-10-02T06:34:26.051Z,62.57
2022-10-02T06:35:26.538Z,62.15
2022-10-02T06:36:27.036Z,61.36
2022-10-02T06:37:27.534Z,61.13
2022-10-02T06:38:28.026Z,60.64
2022-10-02T06:39:28.545Z,60.54
2022-10-02T06:40:29.187Z,60.41
2022-10-02T06:41:29.688Z,60.12
2022-10-02T06:42:30.679Z,59.01
2022-10-02T06:43:31.179Z,59.11
2022-10-02T06:44:32.214Z,58.22
2022-10-02T06:45:32.799Z,58.22
2022-10-02T06:46:33.562Z,56.74
2022-10-02T06:47:34.196Z,57.65
2022-10-02T06:48:34.694Z,56.54
2022-10-02T06:49:35.300Z,56.94
2022-10-02T06:50:35.800Z,56.64
2022-10-02T06:51:36.288Z,57.14
2022-10-02T06:52:38.413Z,56.45
2022-10-02T06:53:38.011Z,55.24
2022-10-02T06:54:38.602Z,55.16
2022-10-02T06:55:39.117Z,55.16
2022-10-02T06:56:39.935Z,55.63
2022-10-02T06:57:40.575Z,55.83
2022-10-02T06:58:41.573Z,55.93
2022-10-02T06:59:42.167Z,56.52
2022-10-02T07:00:42.714Z,56.00
2022-10-02T07:01:43.276Z,55.31
2022-10-02T07:02:43.805Z,55.08
2022-10-02T07:03:44.296Z,54.39
2022-10-02T07:04:44.830Z,54.62
2022-10-02T07:05:45.325Z,54.69
2022-10-02T07:06:45.822Z,54.79
2022-10-02T07:07:46.352Z,55.31
2022-10-02T07:08:46.857Z,55.90
2022-10-02T07:09:47.887Z,55.38
2022-10-02T07:10:48.398Z,55.60
2022-10-02T07:11:48.889Z,55.18
2022-10-02T07:12:49.383Z,55.06
2022-10-02T07:13:49.873Z,53.78
2022-10-02T07:14:50.463Z,53.98
2022-10-02T07:15:50.957Z,54.47
2022-10-02T07:16:51.541Z,54.44
2022-10-02T07:17:52.055Z,54.25
2022-10-02T07:18:52.578Z,54.35
2022-10-02T07:19:53.098Z,53.95
2022-10-02T07:20:53.589Z,53.73
2022-10-02T07:21:54.086Z,53.41
2022-10-02T07:22:55.087Z,53.21
2022-10-02T07:24:00.073Z,52.23
2022-10-02T07:24:56.523Z,52.23
2022-10-02T07:25:57.037Z,52.42
2022-10-02T07:26:57.530Z,52.40
2022-10-02T07:27:58.118Z,52.11
2022-10-02T07:28:58.639Z,52.01
2022-10-02T07:29:59.163Z,51.98
2022-10-02T07:30:59.653Z,51.98
2022-10-02T07:32:00.230Z,52.08
2022-10-02T07:33:00.768Z,51.07
2022-10-02T07:34:01.779Z,49.90
2022-10-02T07:35:02.302Z,51.54
2022-10-02T07:36:02.800Z,51.84
2022-10-02T07:37:03.315Z,52.87
2022-10-02T07:38:03.821Z,53.27
2022-10-02T07:39:04.325Z,53.36
2022-10-02T07:40:04.876Z,53.06
2022-10-02T07:41:05.401Z,52.35
2022-10-02T07:42:05.892Z,52.18
2022-10-02T07:43:06.392Z,52.67
2022-10-02T07:44:06.885Z,52.65
2022-10-02T07:45:07.453Z,52.45
2022-10-02T07:46:09.607Z,52.55
2022-10-02T07:47:08.856Z,51.57
2022-10-02T07:48:09.854Z,51.47
2022-10-02T07:49:10.342Z,51.79
2022-10-02T07:50:10.938Z,53.36
2022-10-02T07:51:11.450Z,53.14
2022-10-02T07:52:11.938Z,53.46
2022-10-02T07:53:12.431Z,52.35
2022-10-02T07:54:13.422Z,51.25
2022-10-02T07:55:14.516Z,50.76
2022-10-02T07:56:15.027Z,50.16
2022-10-02T07:57:15.525Z,50.07
2022-10-02T07:58:16.025Z,50.04
2022-10-02T07:59:16.514Z,50.07
2022-10-02T08:00:17.541Z,51.17
2022-10-02T08:01:18.035Z,50.85
2022-10-02T08:02:18.598Z,50.85
2022-10-02T08:03:19.198Z,51.57
2022-10-02T08:04:19.731Z,52.06
2022-10-02T08:05:20.396Z,51.79
2022-10-02T08:06:20.894Z,51.81
2022-10-02T08:07:21.390Z,50.61
2022-10-02T08:08:21.885Z,51.17
2022-10-02T08:09:22.375Z,51.45
2022-10-02T08:10:22.902Z,50.85
2022-10-02T08:11:23.418Z,50.54
2022-10-02T08:12:23.918Z,50.63
2022-10-02T08:13:24.417Z,50.22
2022-10-02T08:14:24.910Z,47.17
2022-10-02T08:15:25.537Z,47.47
2022-10-02T08:16:26.089Z,48.33
2022-10-02T08:17:26.604Z,46.37
2022-10-02T08:18:34.508Z,43.43
2022-10-02T08:19:27.961Z,43.74
2022-10-02T08:20:29.533Z,44.31
2022-10-02T08:21:29.168Z,45.76
2022-10-02T08:22:29.660Z,46.05
2022-10-02T08:23:30.658Z,46.03
2022-10-02T08:24:31.159Z,45.81
2022-10-02T08:25:31.758Z,43.37
2022-10-02T08:26:35.605Z,42.48
2022-10-02T08:27:32.965Z,40.45
2022-10-02T08:28:33.962Z,40.55
2022-10-02T08:29:34.456Z,41.62
2022-10-02T08:30:34.991Z,42.50
2022-10-02T08:31:35.616Z,41.13
2022-10-02T08:32:36.178Z,41.62
2022-10-02T08:33:36.675Z,41.64
2022-10-02T08:34:37.167Z,41.55
2022-10-02T08:35:37.696Z,40.98
2022-10-02T08:36:38.657Z,42.55
2022-10-02T08:37:38.971Z,43.82
2022-10-02T08:38:39.482Z,43.33
2022-10-02T08:39:39.977Z,42.47
2022-10-02T08:40:40.503Z,42.96
2022-10-02T08:41:41.028Z,43.26
2022-10-02T08:42:41.522Z,43.66
2022-10-02T08:43:42.533Z,43.37
2022-10-02T08:44:43.032Z,42.58
2022-10-02T08:45:43.619Z,42.49
2022-10-02T08:46:44.148Z,42.19
2022-10-02T08:47:44.662Z,42.79
2022-10-02T08:48:45.156Z,43.47
2022-10-02T08:49:45.648Z,43.47
2022-10-02T08:50:46.716Z,42.58
2022-10-02T08:51:47.211Z,42.80
2022-10-02T08:52:47.714Z,43.59
2022-10-02T08:53:48.221Z,43.39
2022-10-02T08:54:48.711Z,42.61
2022-10-02T08:55:49.326Z,41.53
2022-10-02T08:56:49.850Z,42.11
2022-10-02T08:57:50.385Z,43.00
2022-10-02T08:58:50.879Z,43.29
2022-10-02T08:59:51.387Z,43.47
2022-10-02T09:00:52.017Z,44.16
2022-10-02T09:01:57.530Z,44.16
2022-10-02T09:02:53.415Z,43.86
2022-10-02T09:03:53.908Z,43.49
2022-10-02T09:04:54.902Z,43.76
2022-10-02T09:05:55.426Z,44.35
2022-10-02T09:06:55.915Z,43.96
2022-10-02T09:07:56.938Z,43.96
2022-10-02T09:08:57.438Z,43.49
2022-10-02T09:09:57.931Z,44.06
2022-10-02T09:10:58.460Z,42.98
2022-10-02T09:11:58.978Z,43.27
2022-10-02T09:12:59.472Z,42.79
2022-10-02T09:14:00.104Z,40.03
2022-10-02T09:15:00.636Z,37.58
2022-10-02T09:16:01.282Z,37.37
2022-10-02T09:17:01.810Z,36.96
2022-10-02T09:18:02.806Z,38.51
2022-10-02T09:19:03.303Z,36.35
2022-10-02T09:20:04.296Z,36.82
2022-10-02T09:21:08.172Z,36.49
2022-10-02T09:22:05.709Z,35.50
2022-10-02T09:23:06.201Z,35.09
2022-10-02T09:24:07.205Z,33.22
2022-10-02T09:25:07.697Z,32.14
2022-10-02T09:26:08.300Z,31.74
2022-10-02T09:27:08.815Z,31.72
2022-10-02T09:28:09.397Z,31.40
2022-10-02T09:29:09.918Z,30.99
2022-10-02T09:30:10.444Z,30.67
2022-10-02T09:31:11.018Z,30.65
2022-10-02T09:32:11.560Z,31.64
2022-10-02T09:33:15.863Z,31.61
2022-10-02T09:34:13.538Z,31.61
2022-10-02T09:35:14.534Z,31.11
2022-10-02T09:36:15.131Z,30.12
2022-10-02T09:37:15.650Z,29.80
2022-10-02T09:38:16.151Z,29.41
2022-10-02T09:39:17.145Z,29.21
2022-10-02T09:40:17.647Z,28.70
2022-10-02T09:41:18.258Z,28.54
2022-10-02T09:42:18.779Z,28.65
2022-10-02T09:43:19.291Z,29.55
2022-10-02T09:44:19.801Z,29.93
2022-10-02T09:45:20.290Z,29.62
2022-10-02T09:46:21.353Z,29.32
2022-10-02T09:47:21.870Z,30.12
2022-10-02T09:48:22.367Z,30.41
2022-10-02T09:49:22.866Z,30.50
2022-10-02T09:50:23.859Z,30.50
2022-10-02T09:51:24.458Z,29.50
2022-10-02T09:52:24.947Z,28.98
2022-10-02T09:53:25.945Z,28.29
2022-10-02T09:54:26.450Z,28.47
2022-10-02T09:55:26.947Z,28.44
2022-10-02T09:56:28.037Z,28.05
2022-10-02T09:57:28.555Z,28.64
2022-10-02T09:58:29.051Z,28.52
2022-10-02T09:59:29.555Z,28.30
2022-10-02T10:00:30.052Z,27.71
2022-10-02T10:01:31.180Z,27.70
2022-10-02T10:02:31.810Z,26.53
2022-10-02T10:03:32.335Z,26.12
2022-10-02T10:04:47.886Z,26.53
2022-10-02T10:05:34.184Z,26.81
2022-10-02T10:06:35.094Z,26.61
2022-10-02T10:07:35.406Z,26.10
2022-10-02T10:08:36.399Z,26.11
2022-10-02T10:09:37.400Z,26.42
2022-10-02T10:10:37.897Z,27.11
2022-10-02T10:11:38.900Z,27.22
2022-10-02T10:12:39.248Z,27.92
2022-10-02T10:13:39.754Z,28.41
2022-10-02T10:14:40.260Z,28.41
2022-10-02T10:15:40.756Z,28.69
2022-10-02T10:16:41.378Z,28.36
2022-10-02T10:17:41.933Z,27.76
2022-10-02T10:18:42.445Z,27.08
2022-10-02T10:19:42.953Z,26.00
2022-10-02T10:20:43.447Z,25.92
2022-10-02T10:21:44.019Z,26.39
2022-10-02T10:22:44.520Z,26.97
2022-10-02T10:23:45.535Z,27.17
2022-10-02T10:24:46.031Z,27.28
2022-10-02T10:25:46.546Z,26.81
2022-10-02T10:26:47.138Z,27.42
2022-10-02T10:27:47.715Z,28.50
2022-10-02T10:28:48.237Z,28.69
2022-10-02T10:29:48.729Z,28.69
2022-10-02T10:30:49.731Z,28.48
2022-10-02T10:31:50.340Z,28.16
2022-10-02T10:32:50.877Z,27.38
2022-10-02T10:33:51.368Z,26.50
2022-10-02T10:34:52.376Z,26.50
2022-10-02T10:35:52.902Z,26.50
2022-10-02T10:36:53.877Z,26.68
2022-10-02T10:37:54.375Z,26.27
2022-10-02T10:38:54.878Z,25.88
2022-10-02T10:39:55.374Z,25.58
2022-10-02T10:40:55.886Z,25.46
2022-10-02T10:41:56.411Z,25.54
2022-10-02T10:43:07.367Z,24.76
2022-10-02T10:43:57.772Z,25.60
2022-10-02T10:44:58.270Z,25.80
2022-10-02T10:45:58.834Z,25.20
2022-10-02T10:46:59.460Z,24.99
2022-10-02T10:47:59.972Z,25.60
2022-10-02T10:49:00.464Z,25.99
2022-10-02T10:50:01.465Z,25.78
2022-10-02T10:51:01.968Z,25.31
2022-10-02T10:52:02.601Z,25.60
2022-10-02T10:53:03.113Z,25.79
2022-10-02T10:54:03.610Z,26.28
2022-10-02T10:55:04.118Z,26.18
2022-10-02T10:56:04.619Z,26.48
2022-10-02T10:57:05.210Z,26.48
2022-10-02T10:58:05.726Z,26.07
2022-10-02T10:59:06.230Z,26.07
2022-10-02T11:00:06.725Z,26.67
2022-10-02T11:01:07.293Z,26.35
2022-10-02T11:02:07.932Z,26.35
2022-10-02T11:03:08.507Z,26.36
2022-10-02T11:04:09.005Z,27.16
2022-10-02T11:05:09.498Z,27.78
2022-10-02T11:06:10.496Z,27.76
2022-10-02T11:07:11.543Z,27.35
2022-10-02T11:08:12.047Z,27.49
2022-10-02T11:09:12.545Z,27.68
2022-10-02T11:10:13.047Z,27.81
2022-10-02T11:11:13.540Z,27.67
2022-10-02T11:12:14.571Z,27.16
2022-10-02T11:13:15.106Z,26.68
2022-10-02T11:14:15.609Z,27.06
2022-10-02T11:15:16.099Z,27.37
2022-10-02T11:16:16.658Z,27.86
2022-10-02T11:17:17.319Z,27.75
2022-10-02T11:18:17.815Z,27.66
2022-10-02T11:19:21.533Z,27.96
2022-10-02T11:20:18.837Z,28.34
2022-10-02T11:21:19.338Z,28.53
2022-10-02T11:22:19.896Z,28.03
2022-10-02T11:23:20.390Z,27.35
2022-10-02T11:24:20.894Z,27.53
2022-10-02T11:25:21.388Z,27.40
2022-10-02T11:26:22.389Z,27.00
2022-10-02T11:27:22.983Z,26.71
2022-10-02T11:28:23.564Z,26.60
2022-10-02T11:29:24.104Z,25.71
2022-10-02T11:30:24.604Z,25.51
2022-10-02T11:31:25.112Z,25.70
2022-10-02T11:32:25.672Z,24.91
2022-10-02T11:33:26.173Z,24.41
2022-10-02T11:34:26.690Z,24.13
2022-10-02T11:35:27.193Z,24.32
2022-10-02T11:36:27.690Z,24.51
2022-10-02T11:37:28.350Z,24.32
2022-10-02T11:38:28.857Z,23.73
2022-10-02T11:39:29.363Z,23.53
2022-10-02T11:40:29.865Z,23.42
2022-10-02T11:41:30.864Z,23.33
2022-10-02T11:42:31.417Z,23.33
2022-10-02T11:43:31.937Z,23.13
2022-10-02T11:44:32.441Z,22.74
2022-10-02T11:45:32.991Z,22.93
2022-10-02T11:46:33.509Z,22.83
2022-10-02T11:47:34.102Z,22.82
2022-10-02T11:48:34.606Z,22.54
2022-10-02T11:49:35.186Z,22.75
2022-10-02T11:50:35.694Z,23.12
2022-10-02T11:51:36.509Z,22.82
2022-10-02T11:52:36.821Z,22.64
2022-10-02T11:53:37.323Z,22.93
2022-10-02T11:54:37.821Z,22.82
2022-10-02T11:55:38.316Z,23.22
2022-10-02T11:56:38.813Z,23.41
2022-10-02T11:57:39.906Z,23.74
2022-10-02T11:58:40.427Z,23.72
2022-10-02T11:59:40.931Z,23.42
2022-10-02T12:00:41.932Z,23.32
2022-10-02T12:01:42.478Z,23.12
2022-10-02T12:02:43.254Z,23.02
2022-10-02T12:03:43.818Z,22.81
2022-10-02T12:04:44.316Z,22.60
2022-10-02T12:05:44.819Z,22.11
2022-10-02T12:06:45.319Z,21.91
2022-10-02T12:07:45.842Z,21.51
2022-10-02T12:08:46.341Z,21.32
2022-10-02T12:09:46.835Z,21.12
2022-10-02T12:10:47.332Z,20.44
2022-10-02T12:11:47.827Z,20.25
2022-10-02T12:12:48.400Z,20.15
2022-10-02T12:13:48.919Z,20.14
2022-10-02T12:14:49.418Z,20.03
2022-10-02T12:15:50.433Z,19.93
2022-10-02T12:16:51.026Z,19.84
2022-10-02T12:17:51.617Z,19.84
2022-10-02T12:18:52.115Z,19.73
2022-10-02T12:19:52.617Z,19.64
2022-10-02T12:20:53.107Z,19.54
2022-10-02T12:21:54.107Z,19.83
2022-10-02T12:22:55.212Z,19.73
2022-10-02T12:23:55.707Z,19.35
2022-10-02T12:24:56.206Z,19.34
2022-10-02T12:25:56.701Z,19.43
2022-10-02T12:26:57.204Z,19.32
2022-10-02T12:27:57.806Z,19.34
2022-10-02T12:28:58.356Z,19.05
2022-10-02T12:29:58.853Z,19.34
2022-10-02T12:30:59.850Z,19.34
2022-10-02T12:32:00.380Z,19.13
2022-10-02T12:33:00.956Z,19.23
2022-10-02T12:34:01.467Z,19.13
2022-10-02T12:35:01.971Z,19.02
2022-10-02T12:36:02.966Z,18.93
2022-10-02T12:37:03.962Z,18.74
2022-10-02T12:38:04.988Z,18.46
2022-10-02T12:39:05.484Z,18.56
2022-10-02T12:40:05.977Z,18.46
2022-10-02T12:41:06.479Z,18.36
2022-10-02T12:42:06.985Z,18.37
2022-10-02T12:43:07.510Z,18.57
2022-10-02T12:44:08.031Z,18.67
2022-10-02T12:45:11.738Z,18.86
2022-10-02T12:46:09.074Z,18.57
2022-10-02T12:47:09.605Z,18.46
2022-10-02T12:48:10.268Z,18.48
2022-10-02T12:49:10.765Z,18.76
2022-10-02T12:50:11.285Z,19.04
2022-10-02T12:51:11.805Z,18.66
2022-10-02T12:52:12.307Z,18.58
2022-10-02T12:53:12.883Z,18.29
2022-10-02T12:54:13.419Z,18.30
2022-10-02T12:55:13.941Z,18.79
2022-10-02T12:56:14.431Z,19.37
2022-10-02T12:57:14.930Z,19.65
2022-10-02T12:58:15.978Z,19.65
2022-10-02T12:59:16.593Z,19.46
2022-10-02T13:00:17.087Z,19.47